Decatur, GA (30037)

3:51 AM EDT on July 30, 2016 (GMT -0400)
Clifton Church Road Southeast | | Change Station

Elev 0 ft 33.69 °N, 84.31 °W | Updated 28 seconds ago

Overcast
Overcast
75.0 °F
Feels Like 74 °F
N
0.6
Wind Variable Wind from West
Gusts 1.2 mph

Today
High -- | Low -- °F
--% Chance of Precip.
Yesterday
High -- | Low -- °F
Precip. -- in
Pressure 29.96 in
Visibility 10.0 miles
Clouds Few 1300 ft
Scattered Clouds 7500 ft
Overcast 9000 ft
Heat Index 74 °F
Dew Point 73 °F
Humidity 92%
Rainfall 0.33 in
Snow Depth Not available.
6:48 AM 8:38 PM
Waning Crescent, 15% visible
METAR KATL 300652Z 00000KT 10SM FEW013 SCT075 OVC090 24/22 A3000 RMK AO2 RAE31 TSE22 SLP146 TS MOV NE P0016 T02440222
Pressure 29.96 in
Visibility 10.0 miles
Clouds Few 1300 ft
Scattered Clouds 7500 ft
Overcast 9000 ft
Heat Index 74 °F
Dew Point 73 °F
Humidity 92%
Rainfall 0.33 in
Snow Depth Not available.
6:48 AM 8:38 PM
Waning Crescent, 15% visible
METAR KATL 300652Z 00000KT 10SM FEW013 SCT075 OVC090 24/22 A3000 RMK AO2 RAE31 TSE22 SLP146 TS MOV NE P0016 T02440222

10-Day Weather Forecast

Almanac

Astronomy

Jul. 30, 2016 Rise Set
Actual Time
Civil Twilight
Nautical Twilight
Astronomical Twilight
Moon
Length of Visible Light
Length of Day
Tomorrow will be .
, % of the Moon is Illuminated

Today's Extremes

State Highs State Lows

Community

WunderPhotos

Upload Photos

1,928,508 photos uploaded!

WunderBlog® & News

Nearby

Air Quality

  Air Quality AQ Index Pollutant
Not available.

Snow Depth

Station Depth Elevation

Earthquake Activity

City Distance Mag. Time & Date
Minimum magnitude displayed is 2.5.

Coastal Water Temperatures

Place Temperature

Stations

Nearby Weather Stations

Station Location Temp. Windchill Dew Point Humidity Wind Precip. Elev Updated Type
                   

Watches & Warnings

There are currently no watches in effect.